Flight Track Log - Related Links

Times and Time Zones

All times are in EDT time to prevent confusion due to time zone crossing. See the RPA4937 flight status page for this flight to view local times or setup timezone preferences in your user account.

Time Position Orientation Groundspeed Altitude Reporting Facility
EDT Latitude Longitude Course Direction KTS MPH feet Rate Location/Type
Tue 06:02:51 PM 36.9014 -76.1944 293° West 162 186 600  Level Washington Center
Tue 06:03:57 PM 36.9517 -76.1792 14° North 220 253 3,400 2,321 Climbing Washington Center
Tue 06:04:37 PM 36.9639 -76.2158 293° West 223 257 4,700 2,198 Climbing Washington Center
Tue 06:05:38 PM 36.9614 -76.3042 268° West 218 251 7,100 2,410 Climbing Washington Center
Tue 06:06:00 PM 37.0932 -76.6182 300° West  Level FlightAware Approximate
Tue 06:06:39 PM 36.9586 -76.3950 268° West 244 281 9,600  Level Washington Center
Tue 06:07:00 PM 37.1425 -76.7266 300° West  Level FlightAware Approximate
Tue 06:07:37 PM 37.0039 -76.4814 303° West 249 287 12,500  Level Washington Center
Tue 06:08:00 PM 37.1899 -76.8363 293° West  Level FlightAware Approximate
Tue 06:08:37 PM 37.0431 -76.5547 304° West 249 287 14,900  Level Washington Center
Tue 06:09:38 PM 37.0758 -76.6228 301° West 254 292 17,400 1,770 Climbing Washington Center
Tue 06:10:39 PM 37.1383 -76.6289 356° North 217 250 18,500 807 Climbing Washington Center
Tue 06:11:37 PM 37.2136 -76.6142 North 228 262 19,000 252 Climbing Washington Center
Tue 06:12:38 PM 37.2992 -76.5969 North 268 308 19,000  Level Washington Center
Tue 06:13:39 PM 37.3933 -76.5772 North 308 354 19,000  Level Washington Center
Tue 06:14:39 PM 37.4872 -76.5603 North 331 381 19,000  Level Washington Center
Tue 06:15:40 PM 37.5792 -76.5403 10° North 331 381 19,000  Level Washington Center
Tue 06:16:37 PM 37.6711 -76.5233 North 331 381 19,000  Level Washington Center
Tue 06:17:38 PM 37.7547 -76.5083 North 331 381 19,000  Level Washington Center
Tue 06:18:38 PM 37.8467 -76.4858 11° North 331 381 19,000  Level Washington Center
Tue 06:19:39 PM 37.9364 -76.4633 11° North 331 381 19,000  Level Washington Center
Tue 06:20:37 PM 38.0283 -76.4406 11° North 331 381 19,000  Level Washington Center
Tue 06:21:38 PM 38.1203 -76.4206 10° North 331 381 19,000 -344 Level Washington Center
Tue 06:22:39 PM 38.2122 -76.3978 11° North 331 381 18,300 -958 Descending Washington Center
Tue 06:23:37 PM 38.3042 -76.3750 11° North 331 381 17,100 -1,361 Descending Washington Center
Tue 06:24:38 PM 38.3939 -76.3572 North 331 381 15,600 -1,488 Descending Washington Center
Tue 06:25:38 PM 38.4836 -76.3369 10° North 331 381 14,100 -1,140 Descending Washington Center
Tue 06:26:39 PM 38.5714 -76.3139 12° North 331 381 13,300 -555 Descending Washington Center
Tue 06:27:37 PM 38.6550 -76.2908 12° North 326 375 13,000 -151 Descending Washington Center
Tue 06:28:38 PM 38.7425 -76.2625 14° North 316 364 13,000  Level Washington Center
Tue 06:29:39 PM 38.8242 -76.2311 17° North 316 364 13,000 -202 Level Washington Center
Tue 06:30:37 PM 38.9097 -76.1811 24° Northeast 322 371 12,600 -756 Descending Washington Center
Tue 06:31:38 PM 39.0039 -76.1206 27° Northeast 334 384 11,500 -787 Descending Washington Center
Tue 06:32:39 PM 39.0811 -76.0783 23° Northeast 325 374 11,000 -248 Descending Washington Center
Tue 06:33:39 PM 39.1606 -76.0306 25° Northeast 314 361 11,000 -51 Level Washington Center
Tue 06:34:37 PM 39.2400 -75.9803 26° Northeast 314 361 10,900 -51 Descending Washington Center
Tue 06:35:37 PM 39.3192 -75.9350 24° Northeast 308 354 10,900 33 Level Washington Center
Tue 06:37:41 PM 39.4833 -75.8333 26° Northeast 316 364 11,000 33 Climbing Philadelphia TRACON
Tue 06:38:41 PM 39.5500 -75.7667 38° Northeast 318 366 11,000  Level Philadelphia TRACON
Tue 06:39:41 PM 39.6167 -75.6833 44° Northeast 315 362 11,000  Level Philadelphia TRACON
Tue 06:40:47 PM 39.6833 -75.6000 44° Northeast 316 364 11,000 -48 Level Philadelphia TRACON
Tue 06:41:47 PM 39.7167 -75.4833 70° East 314 361 10,900 -600 Descending Philadelphia TRACON
Tue 06:42:47 PM 39.7333 -75.4000 75° East 276 318 9,800 -950 Descending Philadelphia TRACON
Tue 06:43:47 PM 39.7667 -75.3000 67° East 282 325 9,000 -421 Descending Philadelphia TRACON
Tue 06:44:41 PM 39.7833 -75.2167 75° East 278 320 9,000  Level Philadelphia TRACON
Tue 06:45:41 PM 39.8167 -75.1167 67° East 273 314 9,000 -400 Level Philadelphia TRACON
Tue 06:46:41 PM 39.8500 -75.0333 62° Northeast 276 318 8,200 -905 Descending Philadelphia TRACON
Tue 06:47:47 PM 39.8833 -74.9500 62° Northeast 255 293 7,100 -571 Descending Philadelphia TRACON
Tue 06:48:47 PM 39.9333 -74.8833 46° Northeast 254 292 7,000  Descending Philadelphia TRACON
Tue 06:49:55 PM 40.0000 -74.8000 44° Northeast 256 295 7,100  Climbing New York TRACON
Tue 06:50:55 PM 40.0333 -74.7333 57° Northeast 256 295 7,000 -50 Descending New York TRACON
Tue 06:51:55 PM 40.0833 -74.6667 46° Northeast 256 295 7,000  Level New York TRACON
Tue 06:52:49 PM 40.1333 -74.6000 46° Northeast 255 293 7,000  Level New York TRACON
Tue 06:53:49 PM 40.1833 -74.5333 46° Northeast 256 295 7,000  Level New York TRACON
Tue 06:54:49 PM 40.2333 -74.5333 360° North 271 312 7,000 -200 Level New York TRACON
Tue 06:55:49 PM 40.2833 -74.6000 315° West 266 306 6,600 -700 Descending New York TRACON
Tue 06:56:49 PM 40.3333 -74.6500 323° Northwest 254 292 5,600 -714 Descending New York TRACON
Tue 06:57:55 PM 40.4167 -74.6667 351° North 248 285 5,100 -286 Descending New York TRACON
Tue 06:58:55 PM 40.4833 -74.7167 330° Northwest 258 297 5,000 -500 Descending New York TRACON
Tue 06:59:55 PM 40.5333 -74.7500 333° Northwest 232 267 4,100 -950 Descending New York TRACON
Tue 07:00:55 PM 40.5833 -74.7000 37° Northeast 228 262 3,100 -500 Descending New York TRACON
Tue 07:01:55 PM 40.6167 -74.6333 57° Northeast 223 257 3,100 -50 Level New York TRACON
Tue 07:02:55 PM 40.6500 -74.5667 57° Northeast 221 254 3,000 -48 Descending New York TRACON
Tue 07:04:01 PM 40.6833 -74.4833 62° Northeast 217 250 3,000  Level New York TRACON
Tue 07:05:01 PM 40.7167 -74.4167 57° Northeast 198 228 3,000 -100 Level New York TRACON
Tue 07:06:01 PM 40.7167 -74.3500 90° East 191 220 2,800 -667 Descending New York TRACON
Tue 07:07:07 PM 40.7000 -74.2833 108° East 191 220 1,600 -952 Descending New York TRACON
Tue 07:08:07 PM 40.7000 -74.2167 90° East 138 159 800 -800 Descending New York TRACON

Login

Don't have an account? Register now (free) for customized features, flight alerts, and more!